Airfield :
LOGIN :

Register | Disclaimer

   EN    FR    IT 

 










Legend :    VFR   Marginal VFR   IFR   Intensive IFR   Very Intensive IFR
Visi :
Ceiling :
>= 8 km
>= 3000ft
5 to 8 km
1000 to 3000 ft
1500m to 5 km
500 to 1000 ft
800 to 1500m
200 to 500 ft
< 800m
< 200 ft
Symbols :   Thunderstorms  Fog  Heavy snow  Heavy precipitations  Wind > 20 kt
SIGMETs :     Misc.  Thunderstorms  Icing  Turbulence  Mountain Waves  Volcanic Ashes







- Airport Elevation : 37 ft
- IATA code : HLY


EGOV - RAF Valley

CURRENT METAR :
  • 230550Z 20014KT 3000 DZ OVC003 16/15 Q1023 TEMPO 2000 SCT002 RMK YLO2 TEMPO AMB

EXPIRED METARs :
  • 230450Z AUTO 20021KT 8000 BR OVC003/// 16/15 Q1022
  • 230350Z AUTO 19022KT 6000 BR OVC002/// 15/15 Q1022

TAF TAF EGOV
Valid from the 23 at 06:00 until the 23 at 15:00 UTC


230556Z 2306/2315 20015KT 8000 BR BKN005
TEMPO 2306/2311 2000 DZ SCT002
BECMG 2310/2313 NSW FEW005
TEMPO 2313/2315 SCT012
No reported NOTAMs for that airfield.



MET'MAP, your aeronautical weather chart ! - Copyright ORBIFLY December 2007 - Disclaimer

ORBIFLY MET'MAP TEAM :

Programming & Development : Alexandra Zaïnal
Concept & Development : Baudouin d'Aumeries
Co-Development & Prog : Marc-Olivier Méhu
Technical & hardware support : Manuel Goepfert

Contact : metmap@orbifly.com




SOURCES & CREDITS :

   NOAA